CheckWX is a tool to help pilots better visualize weather data.  It is not intended as a substitute for an official pre-flight weather briefing.

19:03:25 UTC

VIDP METAR
Indira Gandhi International Airport
New Delhi, India
Current

33 mins ago

VIDP 271830Z 10004KT 1800 R28/P2000 R29/P2000 FU SCT040 BKN100 16/09 Q1011 NOSIG
Observed
Jan-27 @ 18:30 UTC
Wind
  • 100° at 4 KTS
Visibility
1,800 meters
Flight Rules
IFR
Conditions
Smoke
Cloud Levels
  • Scattered at 4,000' AGL
  • Broken at 10,000' AGL
Temperature
16°C / 61°F
Dewpoint
C / 48°F
Humidity
63%
Altimeter
29.85" Hg
Pressure
1010.92 hPa
Previous

1 hour ago

VIDP 271800Z 10007KT 2200 FU SCT040 BKN100 16/09 Q1010 NOSIG
Observed
Jan-27 @ 18:00 UTC
Wind
  • 100° at 7 KTS
Visibility
2,200 meters
Flight Rules
IFR
Conditions
Smoke
Cloud Levels
  • Scattered at 4,000' AGL
  • Broken at 10,000' AGL
Temperature
16°C / 61°F
Dewpoint
C / 48°F
Humidity
63%
Altimeter
29.82" Hg
Pressure
1009.92 hPa
Previous

2 hours ago

VIDP 271730Z 10007KT 2200 FU SCT040 BKN100 16/09 Q1010 NOSIG
Observed
Jan-27 @ 17:30 UTC
Wind
  • 100° at 7 KTS
Visibility
2,200 meters
Flight Rules
IFR
Conditions
Smoke
Cloud Levels
  • Scattered at 4,000' AGL
  • Broken at 10,000' AGL
Temperature
16°C / 61°F
Dewpoint
C / 48°F
Humidity
63%
Altimeter
29.82" Hg
Pressure
1009.92 hPa